sensor_id;sensor_type;location;lat;lon;timestamp;P1;durP1;ratioP1;P2;durP2;ratioP2
19944;SDS011;10134;50.952;6.930;2023-07-02T00:00:04;7.22;;;2.85;;
19944;SDS011;10134;50.952;6.930;2023-07-02T00:02:36;4.93;;;2.20;;
19944;SDS011;10134;50.952;6.930;2023-07-02T00:05:05;4.93;;;2.47;;
19944;SDS011;10134;50.952;6.930;2023-07-02T00:07:33;7.55;;;3.03;;
19944;SDS011;10134;50.952;6.930;2023-07-02T00:10:03;5.85;;;3.00;;
19944;SDS011;10134;50.952;6.930;2023-07-02T00:12:31;5.35;;;2.80;;
19944;SDS011;10134;50.952;6.930;2023-07-02T00:15:00;6.25;;;2.78;;
19944;SDS011;10134;50.952;6.930;2023-07-02T00:17:28;7.20;;;3.40;;
19944;SDS011;10134;50.952;6.930;2023-07-02T00:19:56;6.25;;;3.28;;
19944;SDS011;10134;50.952;6.930;2023-07-02T00:22:23;7.90;;;3.53;;
19944;SDS011;10134;50.952;6.930;2023-07-02T00:24:50;8.02;;;3.38;;
19944;SDS011;10134;50.952;6.930;2023-07-02T00:27:22;6.68;;;3.55;;
19944;SDS011;10134;50.952;6.930;2023-07-02T00:29:49;6.75;;;3.47;;
19944;SDS011;10134;50.952;6.930;2023-07-02T00:32:16;5.75;;;2.83;;
19944;SDS011;10134;50.952;6.930;2023-07-02T00:34:44;5.88;;;2.80;;
19944;SDS011;10134;50.952;6.930;2023-07-02T00:37:11;5.10;;;2.78;;
19944;SDS011;10134;50.952;6.930;2023-07-02T00:39:38;7.50;;;3.33;;
19944;SDS011;10134;50.952;6.930;2023-07-02T00:42:06;9.82;;;2.72;;
19944;SDS011;10134;50.952;6.930;2023-07-02T00:44:35;6.22;;;3.25;;
19944;SDS011;10134;50.952;6.930;2023-07-02T00:47:10;8.43;;;2.92;;
19944;SDS011;10134;50.952;6.930;2023-07-02T00:49:39;7.40;;;2.75;;
19944;SDS011;10134;50.952;6.930;2023-07-02T00:52:07;6.72;;;2.70;;
19944;SDS011;10134;50.952;6.930;2023-07-02T00:54:34;7.20;;;3.17;;
19944;SDS011;10134;50.952;6.930;2023-07-02T00:57:02;7.05;;;3.35;;
19944;SDS011;10134;50.952;6.930;2023-07-02T00:59:30;5.82;;;2.65;;
19944;SDS011;10134;50.952;6.930;2023-07-02T01:02:01;5.53;;;2.88;;
19944;SDS011;10134;50.952;6.930;2023-07-02T01:04:30;7.80;;;3.35;;
19944;SDS011;10134;50.952;6.930;2023-07-02T01:06:58;5.28;;;2.53;;
19944;SDS011;10134;50.952;6.930;2023-07-02T01:09:25;6.60;;;3.40;;
19944;SDS011;10134;50.952;6.930;2023-07-02T01:11:54;6.25;;;3.20;;
19944;SDS011;10134;50.952;6.930;2023-07-02T01:16:54;6.18;;;3.50;;
19944;SDS011;10134;50.952;6.930;2023-07-02T01:22:19;8.30;;;3.35;;
19944;SDS011;10134;50.952;6.930;2023-07-02T01:24:51;9.18;;;3.70;;
19944;SDS011;10134;50.952;6.930;2023-07-02T01:27:19;10.38;;;4.43;;
19944;SDS011;10134;50.952;6.930;2023-07-02T01:29:51;7.07;;;3.97;;
19944;SDS011;10134;50.952;6.930;2023-07-02T01:32:19;8.13;;;4.05;;
19944;SDS011;10134;50.952;6.930;2023-07-02T01:34:50;8.50;;;4.57;;
19944;SDS011;10134;50.952;6.930;2023-07-02T01:37:20;8.93;;;4.07;;
19944;SDS011;10134;50.952;6.930;2023-07-02T01:39:51;10.45;;;5.70;;
19944;SDS011;10134;50.952;6.930;2023-07-02T01:42:19;12.30;;;5.03;;
19944;SDS011;10134;50.952;6.930;2023-07-02T01:44:47;11.18;;;6.10;;
19944;SDS011;10134;50.952;6.930;2023-07-02T01:47:17;11.50;;;5.25;;
19944;SDS011;10134;50.952;6.930;2023-07-02T01:49:46;11.48;;;5.28;;
19944;SDS011;10134;50.952;6.930;2023-07-02T01:52:14;13.80;;;5.75;;
19944;SDS011;10134;50.952;6.930;2023-07-02T01:54:41;11.65;;;5.80;;
19944;SDS011;10134;50.952;6.930;2023-07-02T01:57:08;11.55;;;6.32;;
19944;SDS011;10134;50.952;6.930;2023-07-02T01:59:37;14.95;;;5.95;;
19944;SDS011;10134;50.952;6.930;2023-07-02T02:02:04;11.82;;;7.00;;
19944;SDS011;10134;50.952;6.930;2023-07-02T02:04:35;14.75;;;5.88;;
19944;SDS011;10134;50.952;6.930;2023-07-02T02:07:03;13.15;;;6.38;;
19944;SDS011;10134;50.952;6.930;2023-07-02T02:09:31;15.57;;;6.18;;
19944;SDS011;10134;50.952;6.930;2023-07-02T02:11:59;14.10;;;6.28;;
19944;SDS011;10134;50.952;6.930;2023-07-02T02:14:26;16.67;;;7.93;;
19944;SDS011;10134;50.952;6.930;2023-07-02T02:16:53;14.45;;;6.82;;
19944;SDS011;10134;50.952;6.930;2023-07-02T02:19:21;13.18;;;6.32;;
19944;SDS011;10134;50.952;6.930;2023-07-02T02:21:48;15.07;;;6.60;;
19944;SDS011;10134;50.952;6.930;2023-07-02T02:24:15;17.95;;;6.50;;
19944;SDS011;10134;50.952;6.930;2023-07-02T02:26:43;14.10;;;7.05;;
19944;SDS011;10134;50.952;6.930;2023-07-02T02:29:10;17.42;;;7.30;;
19944;SDS011;10134;50.952;6.930;2023-07-02T02:31:37;13.27;;;6.70;;
19944;SDS011;10134;50.952;6.930;2023-07-02T02:34:05;18.38;;;8.07;;
19944;SDS011;10134;50.952;6.930;2023-07-02T02:36:33;18.65;;;7.70;;
19944;SDS011;10134;50.952;6.930;2023-07-02T02:39:00;15.20;;;7.47;;
19944;SDS011;10134;50.952;6.930;2023-07-02T02:41:29;15.18;;;6.78;;
19944;SDS011;10134;50.952;6.930;2023-07-02T02:43:56;11.00;;;7.47;;
19944;SDS011;10134;50.952;6.930;2023-07-02T02:46:24;14.35;;;7.63;;
19944;SDS011;10134;50.952;6.930;2023-07-02T02:48:52;12.55;;;7.00;;
19944;SDS011;10134;50.952;6.930;2023-07-02T02:51:20;15.10;;;8.27;;
19944;SDS011;10134;50.952;6.930;2023-07-02T02:53:47;14.90;;;8.40;;
19944;SDS011;10134;50.952;6.930;2023-07-02T02:56:14;13.90;;;7.72;;
19944;SDS011;10134;50.952;6.930;2023-07-02T02:58:41;18.40;;;8.02;;
19944;SDS011;10134;50.952;6.930;2023-07-02T03:01:09;18.55;;;8.48;;
19944;SDS011;10134;50.952;6.930;2023-07-02T03:03:40;17.00;;;8.75;;
19944;SDS011;10134;50.952;6.930;2023-07-02T03:06:12;16.88;;;8.55;;
19944;SDS011;10134;50.952;6.930;2023-07-02T03:08:41;13.30;;;7.45;;
19944;SDS011;10134;50.952;6.930;2023-07-02T03:11:08;16.83;;;8.32;;
19944;SDS011;10134;50.952;6.930;2023-07-02T03:13:36;16.95;;;8.60;;
19944;SDS011;10134;50.952;6.930;2023-07-02T03:16:03;21.15;;;8.23;;
19944;SDS011;10134;50.952;6.930;2023-07-02T03:18:31;15.13;;;8.05;;
19944;SDS011;10134;50.952;6.930;2023-07-02T03:20:59;20.75;;;8.45;;
19944;SDS011;10134;50.952;6.930;2023-07-02T03:23:26;20.55;;;9.57;;
19944;SDS011;10134;50.952;6.930;2023-07-02T03:25:54;19.58;;;9.43;;
19944;SDS011;10134;50.952;6.930;2023-07-02T03:28:21;17.95;;;8.90;;
19944;SDS011;10134;50.952;6.930;2023-07-02T03:30:48;14.57;;;7.72;;
19944;SDS011;10134;50.952;6.930;2023-07-02T03:33:16;16.10;;;9.23;;
19944;SDS011;10134;50.952;6.930;2023-07-02T03:35:43;16.63;;;8.88;;
19944;SDS011;10134;50.952;6.930;2023-07-02T03:38:11;16.50;;;8.93;;
19944;SDS011;10134;50.952;6.930;2023-07-02T03:40:38;19.40;;;9.00;;
19944;SDS011;10134;50.952;6.930;2023-07-02T03:43:07;22.33;;;10.35;;
19944;SDS011;10134;50.952;6.930;2023-07-02T03:45:34;17.85;;;8.20;;
19944;SDS011;10134;50.952;6.930;2023-07-02T03:48:01;18.58;;;10.15;;
19944;SDS011;10134;50.952;6.930;2023-07-02T03:50:29;19.30;;;9.10;;
19944;SDS011;10134;50.952;6.930;2023-07-02T03:52:56;15.88;;;10.02;;
19944;SDS011;10134;50.952;6.930;2023-07-02T03:55:23;18.83;;;10.93;;
19944;SDS011;10134;50.952;6.930;2023-07-02T03:57:51;17.77;;;9.85;;
19944;SDS011;10134;50.952;6.930;2023-07-02T04:00:18;22.98;;;9.48;;
19944;SDS011;10134;50.952;6.930;2023-07-02T04:02:46;18.73;;;9.15;;
19944;SDS011;10134;50.952;6.930;2023-07-02T04:05:13;16.42;;;9.70;;
19944;SDS011;10134;50.952;6.930;2023-07-02T04:07:41;21.35;;;11.02;;
19944;SDS011;10134;50.952;6.930;2023-07-02T04:10:08;17.33;;;10.02;;
19944;SDS011;10134;50.952;6.930;2023-07-02T04:12:36;20.35;;;9.88;;
19944;SDS011;10134;50.952;6.930;2023-07-02T04:15:03;24.63;;;10.95;;
19944;SDS011;10134;50.952;6.930;2023-07-02T04:17:31;18.63;;;9.45;;
19944;SDS011;10134;50.952;6.930;2023-07-02T04:19:59;21.63;;;11.20;;
19944;SDS011;10134;50.952;6.930;2023-07-02T04:22:28;23.77;;;11.40;;
19944;SDS011;10134;50.952;6.930;2023-07-02T04:24:55;19.52;;;10.35;;
19944;SDS011;10134;50.952;6.930;2023-07-02T04:27:34;23.10;;;11.20;;
19944;SDS011;10134;50.952;6.930;2023-07-02T04:30:16;19.85;;;11.57;;
19944;SDS011;10134;50.952;6.930;2023-07-02T04:32:44;22.25;;;12.25;;
19944;SDS011;10134;50.952;6.930;2023-07-02T04:35:11;18.10;;;10.10;;
19944;SDS011;10134;50.952;6.930;2023-07-02T04:37:38;29.05;;;13.30;;
19944;SDS011;10134;50.952;6.930;2023-07-02T04:40:06;21.92;;;11.38;;
19944;SDS011;10134;50.952;6.930;2023-07-02T04:42:37;22.70;;;11.68;;
19944;SDS011;10134;50.952;6.930;2023-07-02T04:45:05;25.55;;;11.20;;
19944;SDS011;10134;50.952;6.930;2023-07-02T04:47:33;26.65;;;12.25;;
19944;SDS011;10134;50.952;6.930;2023-07-02T04:50:01;27.45;;;13.40;;
19944;SDS011;10134;50.952;6.930;2023-07-02T04:52:28;27.67;;;11.82;;
19944;SDS011;10134;50.952;6.930;2023-07-02T04:54:56;24.80;;;11.95;;
19944;SDS011;10134;50.952;6.930;2023-07-02T04:57:23;24.95;;;12.13;;
19944;SDS011;10134;50.952;6.930;2023-07-02T04:59:50;22.40;;;12.40;;
19944;SDS011;10134;50.952;6.930;2023-07-02T05:02:18;22.27;;;11.90;;
19944;SDS011;10134;50.952;6.930;2023-07-02T05:04:45;21.83;;;11.63;;
19944;SDS011;10134;50.952;6.930;2023-07-02T05:07:12;22.90;;;12.50;;
19944;SDS011;10134;50.952;6.930;2023-07-02T05:09:40;27.02;;;12.13;;
19944;SDS011;10134;50.952;6.930;2023-07-02T05:12:07;26.80;;;12.20;;
19944;SDS011;10134;50.952;6.930;2023-07-02T05:14:35;28.30;;;12.77;;
19944;SDS011;10134;50.952;6.930;2023-07-02T05:17:03;32.65;;;14.10;;
19944;SDS011;10134;50.952;6.930;2023-07-02T05:19:30;26.05;;;13.32;;
19944;SDS011;10134;50.952;6.930;2023-07-02T05:21:58;28.20;;;14.23;;
19944;SDS011;10134;50.952;6.930;2023-07-02T05:24:25;26.17;;;14.32;;
19944;SDS011;10134;50.952;6.930;2023-07-02T05:26:52;26.67;;;12.70;;
19944;SDS011;10134;50.952;6.930;2023-07-02T05:29:19;28.92;;;13.43;;
19944;SDS011;10134;50.952;6.930;2023-07-02T05:31:47;23.80;;;13.57;;
19944;SDS011;10134;50.952;6.930;2023-07-02T05:34:14;23.23;;;12.77;;
19944;SDS011;10134;50.952;6.930;2023-07-02T05:36:41;26.20;;;14.20;;
19944;SDS011;10134;50.952;6.930;2023-07-02T05:39:08;28.35;;;13.73;;
19944;SDS011;10134;50.952;6.930;2023-07-02T05:41:36;34.65;;;13.93;;
19944;SDS011;10134;50.952;6.930;2023-07-02T05:44:03;27.13;;;13.35;;
19944;SDS011;10134;50.952;6.930;2023-07-02T05:46:30;28.33;;;13.82;;
19944;SDS011;10134;50.952;6.930;2023-07-02T05:48:58;33.75;;;14.75;;
19944;SDS011;10134;50.952;6.930;2023-07-02T05:51:26;27.52;;;14.07;;
19944;SDS011;10134;50.952;6.930;2023-07-02T05:53:54;28.33;;;14.60;;
19944;SDS011;10134;50.952;6.930;2023-07-02T05:56:21;31.42;;;14.15;;
19944;SDS011;10134;50.952;6.930;2023-07-02T05:58:49;26.58;;;13.52;;
19944;SDS011;10134;50.952;6.930;2023-07-02T06:01:17;28.00;;;13.38;;
19944;SDS011;10134;50.952;6.930;2023-07-02T06:03:44;27.63;;;14.38;;
19944;SDS011;10134;50.952;6.930;2023-07-02T06:06:12;29.30;;;14.27;;
19944;SDS011;10134;50.952;6.930;2023-07-02T06:08:39;30.65;;;14.38;;
19944;SDS011;10134;50.952;6.930;2023-07-02T06:11:07;28.33;;;14.18;;
19944;SDS011;10134;50.952;6.930;2023-07-02T06:13:35;29.10;;;14.88;;
19944;SDS011;10134;50.952;6.930;2023-07-02T06:16:03;29.35;;;14.77;;
19944;SDS011;10134;50.952;6.930;2023-07-02T06:18:30;34.45;;;15.18;;
19944;SDS011;10134;50.952;6.930;2023-07-02T06:20:58;29.88;;;14.20;;
19944;SDS011;10134;50.952;6.930;2023-07-02T06:23:25;31.08;;;14.50;;
19944;SDS011;10134;50.952;6.930;2023-07-02T06:25:52;32.55;;;14.82;;
19944;SDS011;10134;50.952;6.930;2023-07-02T06:28:25;30.58;;;13.35;;
19944;SDS011;10134;50.952;6.930;2023-07-02T06:30:53;28.60;;;13.95;;
19944;SDS011;10134;50.952;6.930;2023-07-02T06:33:20;27.23;;;13.57;;
19944;SDS011;10134;50.952;6.930;2023-07-02T06:35:48;28.63;;;14.57;;
19944;SDS011;10134;50.952;6.930;2023-07-02T06:38:16;25.73;;;14.50;;
19944;SDS011;10134;50.952;6.930;2023-07-02T06:40:43;29.13;;;13.95;;
19944;SDS011;10134;50.952;6.930;2023-07-02T06:43:10;26.13;;;13.02;;
19944;SDS011;10134;50.952;6.930;2023-07-02T06:45:37;30.42;;;13.70;;
19944;SDS011;10134;50.952;6.930;2023-07-02T06:48:05;26.27;;;13.15;;
19944;SDS011;10134;50.952;6.930;2023-07-02T06:50:32;24.63;;;12.25;;
19944;SDS011;10134;50.952;6.930;2023-07-02T06:52:59;27.25;;;13.70;;
19944;SDS011;10134;50.952;6.930;2023-07-02T06:55:27;27.67;;;13.65;;
19944;SDS011;10134;50.952;6.930;2023-07-02T06:57:54;25.05;;;13.18;;
19944;SDS011;10134;50.952;6.930;2023-07-02T07:00:21;24.48;;;13.18;;
19944;SDS011;10134;50.952;6.930;2023-07-02T07:02:49;23.27;;;12.82;;
19944;SDS011;10134;50.952;6.930;2023-07-02T07:05:16;26.35;;;14.40;;
19944;SDS011;10134;50.952;6.930;2023-07-02T07:07:44;31.17;;;14.40;;
19944;SDS011;10134;50.952;6.930;2023-07-02T07:10:11;29.25;;;12.73;;
19944;SDS011;10134;50.952;6.930;2023-07-02T07:12:39;30.70;;;13.02;;
19944;SDS011;10134;50.952;6.930;2023-07-02T07:15:06;24.23;;;12.80;;
19944;SDS011;10134;50.952;6.930;2023-07-02T07:17:34;30.83;;;13.68;;
19944;SDS011;10134;50.952;6.930;2023-07-02T07:20:01;25.00;;;12.95;;
19944;SDS011;10134;50.952;6.930;2023-07-02T07:22:33;24.95;;;13.27;;
19944;SDS011;10134;50.952;6.930;2023-07-02T07:25:01;26.35;;;12.85;;
19944;SDS011;10134;50.952;6.930;2023-07-02T07:27:28;26.92;;;13.02;;
19944;SDS011;10134;50.952;6.930;2023-07-02T07:29:56;27.60;;;12.45;;
19944;SDS011;10134;50.952;6.930;2023-07-02T07:32:23;25.60;;;12.90;;
19944;SDS011;10134;50.952;6.930;2023-07-02T07:34:50;24.98;;;12.43;;
19944;SDS011;10134;50.952;6.930;2023-07-02T07:37:18;29.00;;;12.77;;
19944;SDS011;10134;50.952;6.930;2023-07-02T07:39:46;24.17;;;12.30;;
19944;SDS011;10134;50.952;6.930;2023-07-02T07:42:14;22.70;;;11.50;;
19944;SDS011;10134;50.952;6.930;2023-07-02T07:44:46;25.80;;;11.77;;
19944;SDS011;10134;50.952;6.930;2023-07-02T07:47:14;24.20;;;11.45;;
19944;SDS011;10134;50.952;6.930;2023-07-02T07:49:41;21.98;;;11.73;;
19944;SDS011;10134;50.952;6.930;2023-07-02T07:52:08;40.80;;;13.90;;
19944;SDS011;10134;50.952;6.930;2023-07-02T07:54:36;29.33;;;12.15;;
19944;SDS011;10134;50.952;6.930;2023-07-02T07:57:03;28.50;;;13.07;;
19944;SDS011;10134;50.952;6.930;2023-07-02T07:59:31;24.33;;;12.27;;
19944;SDS011;10134;50.952;6.930;2023-07-02T08:01:58;22.85;;;12.25;;
19944;SDS011;10134;50.952;6.930;2023-07-02T08:04:26;21.75;;;12.15;;
19944;SDS011;10134;50.952;6.930;2023-07-02T08:06:53;24.75;;;11.38;;
19944;SDS011;10134;50.952;6.930;2023-07-02T08:09:21;25.42;;;11.23;;
19944;SDS011;10134;50.952;6.930;2023-07-02T08:11:48;22.75;;;11.20;;
19944;SDS011;10134;50.952;6.930;2023-07-02T08:14:16;24.15;;;11.20;;
19944;SDS011;10134;50.952;6.930;2023-07-02T08:16:45;25.63;;;10.50;;
19944;SDS011;10134;50.952;6.930;2023-07-02T08:19:12;22.63;;;11.85;;
19944;SDS011;10134;50.952;6.930;2023-07-02T08:21:40;25.75;;;11.57;;
19944;SDS011;10134;50.952;6.930;2023-07-02T08:24:08;22.02;;;11.98;;
19944;SDS011;10134;50.952;6.930;2023-07-02T08:26:36;25.20;;;11.73;;
19944;SDS011;10134;50.952;6.930;2023-07-02T08:29:04;21.45;;;10.60;;
19944;SDS011;10134;50.952;6.930;2023-07-02T08:31:31;20.20;;;10.98;;
19944;SDS011;10134;50.952;6.930;2023-07-02T08:33:58;23.35;;;11.73;;
19944;SDS011;10134;50.952;6.930;2023-07-02T08:36:26;22.58;;;10.00;;
19944;SDS011;10134;50.952;6.930;2023-07-02T08:38:53;21.08;;;10.55;;
19944;SDS011;10134;50.952;6.930;2023-07-02T08:41:21;22.30;;;10.30;;
19944;SDS011;10134;50.952;6.930;2023-07-02T08:43:50;20.38;;;10.15;;
19944;SDS011;10134;50.952;6.930;2023-07-02T08:46:21;23.23;;;10.18;;
19944;SDS011;10134;50.952;6.930;2023-07-02T08:48:48;26.38;;;10.65;;
19944;SDS011;10134;50.952;6.930;2023-07-02T08:51:16;22.88;;;10.57;;
19944;SDS011;10134;50.952;6.930;2023-07-02T08:53:47;19.73;;;9.77;;
19944;SDS011;10134;50.952;6.930;2023-07-02T08:56:14;23.02;;;12.52;;
19944;SDS011;10134;50.952;6.930;2023-07-02T08:58:41;24.60;;;10.48;;
19944;SDS011;10134;50.952;6.930;2023-07-02T09:01:10;22.08;;;10.80;;
19944;SDS011;10134;50.952;6.930;2023-07-02T09:03:39;21.45;;;11.02;;
19944;SDS011;10134;50.952;6.930;2023-07-02T09:06:09;21.80;;;9.25;;
19944;SDS011;10134;50.952;6.930;2023-07-02T09:08:37;18.98;;;9.73;;
19944;SDS011;10134;50.952;6.930;2023-07-02T09:11:09;16.73;;;10.40;;
19944;SDS011;10134;50.952;6.930;2023-07-02T09:13:48;19.95;;;10.45;;
19944;SDS011;10134;50.952;6.930;2023-07-02T09:16:20;22.73;;;10.05;;
19944;SDS011;10134;50.952;6.930;2023-07-02T09:19:04;20.83;;;9.18;;
19944;SDS011;10134;50.952;6.930;2023-07-02T09:21:47;22.42;;;10.85;;
19944;SDS011;10134;50.952;6.930;2023-07-02T09:24:19;26.10;;;11.50;;
19944;SDS011;10134;50.952;6.930;2023-07-02T09:26:52;24.17;;;12.05;;
19944;SDS011;10134;50.952;6.930;2023-07-02T09:29:25;28.73;;;11.23;;
19944;SDS011;10134;50.952;6.930;2023-07-02T09:31:58;25.17;;;11.68;;
19944;SDS011;10134;50.952;6.930;2023-07-02T09:34:46;22.63;;;10.90;;
19944;SDS011;10134;50.952;6.930;2023-07-02T09:37:13;24.45;;;11.40;;
19944;SDS011;10134;50.952;6.930;2023-07-02T09:39:41;31.83;;;11.63;;
19944;SDS011;10134;50.952;6.930;2023-07-02T09:42:09;24.58;;;11.30;;
19944;SDS011;10134;50.952;6.930;2023-07-02T09:44:37;22.73;;;11.27;;
19944;SDS011;10134;50.952;6.930;2023-07-02T09:47:06;22.17;;;11.65;;
19944;SDS011;10134;50.952;6.930;2023-07-02T09:49:39;20.23;;;11.98;;
19944;SDS011;10134;50.952;6.930;2023-07-02T09:52:09;23.67;;;11.52;;
19944;SDS011;10134;50.952;6.930;2023-07-02T09:54:37;24.42;;;11.32;;
19944;SDS011;10134;50.952;6.930;2023-07-02T09:57:05;22.42;;;11.57;;
19944;SDS011;10134;50.952;6.930;2023-07-02T09:59:34;26.30;;;13.65;;
19944;SDS011;10134;50.952;6.930;2023-07-02T10:02:01;22.52;;;11.65;;
19944;SDS011;10134;50.952;6.930;2023-07-02T10:04:39;21.55;;;10.90;;
19944;SDS011;10134;50.952;6.930;2023-07-02T10:07:08;19.83;;;11.07;;
19944;SDS011;10134;50.952;6.930;2023-07-02T10:14:48;19.63;;;10.90;;
19944;SDS011;10134;50.952;6.930;2023-07-02T10:17:30;25.02;;;11.40;;
19944;SDS011;10134;50.952;6.930;2023-07-02T10:20:05;21.25;;;10.48;;
19944;SDS011;10134;50.952;6.930;2023-07-02T10:22:44;27.10;;;10.80;;
19944;SDS011;10134;50.952;6.930;2023-07-02T10:25:23;21.63;;;10.45;;
19944;SDS011;10134;50.952;6.930;2023-07-02T10:28:01;20.63;;;9.95;;
19944;SDS011;10134;50.952;6.930;2023-07-02T10:30:40;20.83;;;11.10;;
19944;SDS011;10134;50.952;6.930;2023-07-02T10:35:36;19.60;;;9.82;;
19944;SDS011;10134;50.952;6.930;2023-07-02T10:38:05;23.55;;;10.10;;
19944;SDS011;10134;50.952;6.930;2023-07-02T10:40:33;24.77;;;10.88;;
19944;SDS011;10134;50.952;6.930;2023-07-02T10:43:01;23.45;;;9.82;;
19944;SDS011;10134;50.952;6.930;2023-07-02T10:45:32;18.23;;;9.85;;
19944;SDS011;10134;50.952;6.930;2023-07-02T10:48:03;20.58;;;10.00;;
19944;SDS011;10134;50.952;6.930;2023-07-02T10:50:35;23.60;;;10.82;;
19944;SDS011;10134;50.952;6.930;2023-07-02T10:53:02;19.15;;;10.18;;
19944;SDS011;10134;50.952;6.930;2023-07-02T10:55:30;17.58;;;9.60;;
19944;SDS011;10134;50.952;6.930;2023-07-02T10:58:05;21.85;;;10.68;;
19944;SDS011;10134;50.952;6.930;2023-07-02T11:00:47;22.98;;;10.55;;
19944;SDS011;10134;50.952;6.930;2023-07-02T11:05:46;19.40;;;10.32;;
19944;SDS011;10134;50.952;6.930;2023-07-02T11:08:15;20.80;;;10.07;;
19944;SDS011;10134;50.952;6.930;2023-07-02T11:10:43;16.65;;;10.07;;
19944;SDS011;10134;50.952;6.930;2023-07-02T11:13:14;20.88;;;10.68;;
19944;SDS011;10134;50.952;6.930;2023-07-02T11:15:42;18.67;;;9.55;;
19944;SDS011;10134;50.952;6.930;2023-07-02T11:18:14;23.85;;;10.75;;
19944;SDS011;10134;50.952;6.930;2023-07-02T11:20:43;23.50;;;11.70;;
19944;SDS011;10134;50.952;6.930;2023-07-02T11:23:18;19.52;;;9.90;;
19944;SDS011;10134;50.952;6.930;2023-07-02T11:25:59;20.58;;;10.68;;
19944;SDS011;10134;50.952;6.930;2023-07-02T11:28:28;17.30;;;10.02;;
19944;SDS011;10134;50.952;6.930;2023-07-02T11:30:58;20.17;;;11.10;;
19944;SDS011;10134;50.952;6.930;2023-07-02T11:34:00;18.65;;;10.05;;
19944;SDS011;10134;50.952;6.930;2023-07-02T11:36:20;19.60;;;10.45;;
19944;SDS011;10134;50.952;6.930;2023-07-02T11:38:50;18.70;;;9.40;;
19944;SDS011;10134;50.952;6.930;2023-07-02T11:41:18;22.17;;;10.85;;
19944;SDS011;10134;50.952;6.930;2023-07-02T11:43:48;22.27;;;10.90;;
19944;SDS011;10134;50.952;6.930;2023-07-02T11:46:15;24.75;;;11.70;;
19944;SDS011;10134;50.952;6.930;2023-07-02T11:48:42;22.00;;;11.25;;
19944;SDS011;10134;50.952;6.930;2023-07-02T11:51:10;23.33;;;11.43;;
19944;SDS011;10134;50.952;6.930;2023-07-02T11:53:37;20.52;;;10.35;;
19944;SDS011;10134;50.952;6.930;2023-07-02T11:56:05;21.90;;;10.75;;
19944;SDS011;10134;50.952;6.930;2023-07-02T11:58:33;17.35;;;9.80;;
19944;SDS011;10134;50.952;6.930;2023-07-02T12:01:00;22.38;;;10.93;;
19944;SDS011;10134;50.952;6.930;2023-07-02T12:03:27;16.27;;;8.73;;
19944;SDS011;10134;50.952;6.930;2023-07-02T12:05:55;16.48;;;8.73;;
19944;SDS011;10134;50.952;6.930;2023-07-02T12:08:22;17.60;;;9.50;;
19944;SDS011;10134;50.952;6.930;2023-07-02T12:10:50;18.63;;;9.82;;
19944;SDS011;10134;50.952;6.930;2023-07-02T12:13:17;17.05;;;8.65;;
19944;SDS011;10134;50.952;6.930;2023-07-02T12:15:44;18.17;;;8.18;;
19944;SDS011;10134;50.952;6.930;2023-07-02T12:18:12;14.82;;;7.90;;
19944;SDS011;10134;50.952;6.930;2023-07-02T12:20:39;20.30;;;8.23;;
19944;SDS011;10134;50.952;6.930;2023-07-02T12:23:07;12.38;;;6.88;;
19944;SDS011;10134;50.952;6.930;2023-07-02T12:25:34;12.43;;;7.35;;
19944;SDS011;10134;50.952;6.930;2023-07-02T12:28:02;20.00;;;6.97;;
19944;SDS011;10134;50.952;6.930;2023-07-02T12:30:32;12.43;;;6.68;;
19944;SDS011;10134;50.952;6.930;2023-07-02T12:33:00;11.57;;;6.10;;
19944;SDS011;10134;50.952;6.930;2023-07-02T12:35:27;14.50;;;6.82;;
19944;SDS011;10134;50.952;6.930;2023-07-02T12:37:54;14.15;;;7.47;;
19944;SDS011;10134;50.952;6.930;2023-07-02T12:40:21;12.57;;;6.10;;
19944;SDS011;10134;50.952;6.930;2023-07-02T12:42:49;13.43;;;5.75;;
19944;SDS011;10134;50.952;6.930;2023-07-02T12:45:16;14.35;;;6.38;;
19944;SDS011;10134;50.952;6.930;2023-07-02T12:47:47;12.93;;;7.03;;
19944;SDS011;10134;50.952;6.930;2023-07-02T12:50:15;14.20;;;5.68;;
19944;SDS011;10134;50.952;6.930;2023-07-02T12:52:43;13.52;;;6.25;;
19944;SDS011;10134;50.952;6.930;2023-07-02T12:55:10;13.93;;;7.18;;
19944;SDS011;10134;50.952;6.930;2023-07-02T12:57:37;13.43;;;6.47;;
19944;SDS011;10134;50.952;6.930;2023-07-02T13:00:05;13.43;;;7.22;;
19944;SDS011;10134;50.952;6.930;2023-07-02T13:02:33;12.13;;;6.45;;
19944;SDS011;10134;50.952;6.930;2023-07-02T13:05:12;13.68;;;7.00;;
19944;SDS011;10134;50.952;6.930;2023-07-02T13:07:40;11.18;;;7.20;;
19944;SDS011;10134;50.952;6.930;2023-07-02T13:10:08;16.50;;;7.43;;
19944;SDS011;10134;50.952;6.930;2023-07-02T13:12:35;14.40;;;8.13;;
19944;SDS011;10134;50.952;6.930;2023-07-02T13:15:03;16.00;;;7.45;;
19944;SDS011;10134;50.952;6.930;2023-07-02T13:17:30;17.60;;;8.45;;
19944;SDS011;10134;50.952;6.930;2023-07-02T13:19:58;17.63;;;7.68;;
19944;SDS011;10134;50.952;6.930;2023-07-02T13:22:25;15.90;;;7.53;;
19944;SDS011;10134;50.952;6.930;2023-07-02T13:24:53;14.60;;;8.70;;
19944;SDS011;10134;50.952;6.930;2023-07-02T13:27:20;16.83;;;8.68;;
19944;SDS011;10134;50.952;6.930;2023-07-02T13:29:47;19.55;;;8.30;;
19944;SDS011;10134;50.952;6.930;2023-07-02T13:32:15;22.10;;;9.48;;
19944;SDS011;10134;50.952;6.930;2023-07-02T13:34:42;18.48;;;9.60;;
19944;SDS011;10134;50.952;6.930;2023-07-02T13:37:09;19.55;;;8.43;;
19944;SDS011;10134;50.952;6.930;2023-07-02T13:39:37;15.82;;;8.45;;
19944;SDS011;10134;50.952;6.930;2023-07-02T13:42:05;19.55;;;8.70;;
19944;SDS011;10134;50.952;6.930;2023-07-02T13:44:32;19.02;;;8.82;;
19944;SDS011;10134;50.952;6.930;2023-07-02T13:47:00;14.25;;;8.15;;
19944;SDS011;10134;50.952;6.930;2023-07-02T13:49:27;16.45;;;8.82;;
19944;SDS011;10134;50.952;6.930;2023-07-02T13:51:54;17.45;;;8.90;;
19944;SDS011;10134;50.952;6.930;2023-07-02T13:54:22;16.13;;;9.32;;
19944;SDS011;10134;50.952;6.930;2023-07-02T13:56:49;16.65;;;8.15;;
19944;SDS011;10134;50.952;6.930;2023-07-02T13:59:17;17.20;;;8.13;;
19944;SDS011;10134;50.952;6.930;2023-07-02T14:01:45;17.00;;;7.78;;
19944;SDS011;10134;50.952;6.930;2023-07-02T14:04:14;16.45;;;8.55;;
19944;SDS011;10134;50.952;6.930;2023-07-02T14:06:43;14.30;;;8.10;;
19944;SDS011;10134;50.952;6.930;2023-07-02T14:09:11;15.55;;;8.55;;
19944;SDS011;10134;50.952;6.930;2023-07-02T14:11:39;13.68;;;7.53;;
19944;SDS011;10134;50.952;6.930;2023-07-02T14:14:08;17.77;;;8.40;;
19944;SDS011;10134;50.952;6.930;2023-07-02T14:16:36;14.40;;;8.63;;
19944;SDS011;10134;50.952;6.930;2023-07-02T14:19:03;12.88;;;8.10;;
19944;SDS011;10134;50.952;6.930;2023-07-02T14:21:31;19.58;;;9.35;;
19944;SDS011;10134;50.952;6.930;2023-07-02T14:23:58;16.73;;;9.00;;
19944;SDS011;10134;50.952;6.930;2023-07-02T14:26:27;16.02;;;8.55;;
19944;SDS011;10134;50.952;6.930;2023-07-02T14:28:54;17.73;;;8.93;;
19944;SDS011;10134;50.952;6.930;2023-07-02T14:31:22;14.10;;;8.05;;
19944;SDS011;10134;50.952;6.930;2023-07-02T14:33:49;30.42;;;9.35;;
19944;SDS011;10134;50.952;6.930;2023-07-02T14:36:17;20.88;;;9.10;;
19944;SDS011;10134;50.952;6.930;2023-07-02T14:38:44;18.63;;;9.23;;
19944;SDS011;10134;50.952;6.930;2023-07-02T14:41:11;16.20;;;7.45;;
19944;SDS011;10134;50.952;6.930;2023-07-02T14:43:39;14.15;;;8.50;;
19944;SDS011;10134;50.952;6.930;2023-07-02T14:46:06;16.42;;;8.48;;
19944;SDS011;10134;50.952;6.930;2023-07-02T14:48:34;21.55;;;8.88;;
19944;SDS011;10134;50.952;6.930;2023-07-02T14:51:01;18.20;;;8.27;;